Time;durP1;ratioP1;P1;durP2;ratioP2;P2;SDS_P1;SDS_P2;PMS_P1;PMS_P2;Temp;Humidity;BMP_temperature;BMP_pressure;BME280_temperature;BME280_humidity;BME280_pressure;Samples;Min_cycle;Max_cycle;Signal;HPM_P1;HPM_P2
2023/01/29 00:01:49;;;;;;;;;;;;;;;-1.21;100.00;97502.28;5076017;28;19954;-73
2023/01/29 00:04:15;;;;;;;;;;;;;;;-1.21;100.00;97489.41;5076064;28;19953;-73
2023/01/29 00:06:42;;;;;;;;;;;;;;;-1.24;100.00;97475.84;5075842;28;20395;-73
2023/01/29 00:09:09;;;;;;;;;;;;;;;-1.21;100.00;97473.97;5076041;28;19947;-73
2023/01/29 00:11:35;;;;;;;;;;;;;;;-1.25;100.00;97471.59;5075884;28;19983;-73
2023/01/29 00:14:00;;;;;;;;;;;;;;;-1.26;100.00;97477.72;5075871;28;19986;-73
2023/01/29 00:16:26;;;;;;;;;;;;;;;-1.27;100.00;97477.81;5075638;28;19945;-73
2023/01/29 00:18:52;;;;;;;;;;;;;;;-1.26;100.00;97487.16;5075799;28;19955;-73
2023/01/29 00:21:20;;;;;;;;;;;;;;;-1.27;100.00;97478.63;5075645;28;19965;-73
2023/01/29 00:23:47;;;;;;;;;;;;;;;-1.25;100.00;97475.94;5075704;28;20343;-73
2023/01/29 00:26:13;;;;;;;;;;;;;;;-1.24;100.00;97475.84;5075404;28;19972;-73
2023/01/29 00:28:39;;;;;;;;;;;;;;;-1.24;100.00;97475.00;5075488;28;19956;-73
2023/01/29 00:31:09;;;;;;;;;;;;;;;-1.25;100.00;97474.19;5075341;28;20043;-73
2023/01/29 00:33:34;;;;;;;;;;;;;;;-1.27;100.00;97465.75;5075729;28;19958;-73
2023/01/29 00:36:01;;;;;;;;;;;;;;;-1.27;100.00;97460.63;5075328;28;19951;-73
2023/01/29 00:38:27;;;;;;;;;;;;;;;-1.27;100.00;97463.19;5075170;28;19951;-73
2023/01/29 00:46:22;;;;;;;;;;;;;;;-1.28;100.00;97471.84;5074689;28;19966;-73
2023/01/29 00:48:48;;;;;;;;;;;;;;;-1.28;100.00;97459.00;5074968;28;20002;-73
2023/01/29 00:51:13;;;;;;;;;;;;;;;-1.28;100.00;97465.88;5075299;28;19952;-73
2023/01/29 00:53:39;;;;;;;;;;;;;;;-1.28;100.00;97468.44;5075072;28;19957;-73
2023/01/29 00:56:05;;;;;;;;;;;;;;;-1.25;100.00;97473.38;5073986;28;19960;-73
2023/01/29 00:58:34;;;;;;;;;;;;;;;-1.28;100.00;97474.44;5074204;28;19947;-73
2023/01/29 01:01:01;;;;;;;;;;;;;;;-1.28;100.00;97473.59;5074894;28;19948;-73
2023/01/29 01:03:27;;;;;;;;;;;;;;;-1.29;100.00;97469.41;5074948;28;19946;-73
2023/01/29 01:06:07;;;;;;;;;;;;;;;-1.26;100.00;97469.16;5074578;28;19951;-73
2023/01/29 01:11:17;;;;;;;;;;;;;;;-1.23;100.00;97463.78;5074869;28;19959;-73
2023/01/29 01:13:43;;;;;;;;;;;;;;;-1.21;100.00;97458.53;5074580;28;20013;-73
2023/01/29 01:16:13;;;;;;;;;;;;;;;-1.20;100.00;97470.44;5074861;28;19998;-73
2023/01/29 01:18:39;;;;;;;;;;;;;;;-1.20;100.00;97465.28;5074632;28;19947;-73
2023/01/29 01:21:05;;;;;;;;;;;;;;;-1.20;100.00;97465.28;5074782;28;20045;-73
2023/01/29 01:23:31;;;;;;;;;;;;;;;-1.17;100.00;97470.22;5074652;28;20418;-73
2023/01/29 01:25:58;;;;;;;;;;;;;;;-1.20;100.00;97471.25;5074531;28;19964;-73
2023/01/29 01:28:24;;;;;;;;;;;;;;;-1.22;100.00;97475.69;5074435;28;19946;-73
2023/01/29 01:30:50;;;;;;;;;;;;;;;-1.25;100.00;97473.38;5074222;28;19953;-74
2023/01/29 01:33:16;;;;;;;;;;;;;;;-1.27;100.00;97475.25;5074222;28;19962;-73
2023/01/29 01:35:41;;;;;;;;;;;;;;;-1.28;100.00;97464.13;5074283;28;19956;-73
2023/01/29 01:38:07;;;;;;;;;;;;;;;-1.25;100.00;97473.38;5074428;28;20376;-73
2023/01/29 01:40:33;;;;;;;;;;;;;;;-1.25;100.00;97463.06;5074611;28;19954;-73
2023/01/29 01:43:00;;;;;;;;;;;;;;;-1.24;100.00;97462.13;5074307;28;20323;-73
2023/01/29 01:45:33;;;;;;;;;;;;;;;-1.23;100.00;97458.63;5073875;28;19953;-73
2023/01/29 01:48:05;;;;;;;;;;;;;;;-1.24;100.00;97465.53;5074498;28;20327;-73
2023/01/29 01:50:37;;;;;;;;;;;;;;;-1.24;100.00;97454.41;5073984;28;20023;-73
2023/01/29 01:53:05;;;;;;;;;;;;;;;-1.26;100.00;97464.00;5073947;28;19956;-73
2023/01/29 01:55:33;;;;;;;;;;;;;;;-1.26;100.00;97451.13;5073762;28;19951;-73
2023/01/29 01:58:03;;;;;;;;;;;;;;;-1.27;100.00;97457.22;5074118;28;20391;-73
2023/01/29 02:00:29;;;;;;;;;;;;;;;-1.30;100.00;97457.44;5074142;28;19956;-73
2023/01/29 02:11:15;;;;;;;;;;;;;;;-1.27;100.00;97455.47;5073536;28;19958;-73
2023/01/29 02:13:42;;;;;;;;;;;;;;;-1.29;100.00;97444.47;5073666;28;19972;-73
2023/01/29 02:16:07;;;;;;;;;;;;;;;-1.29;100.00;97451.38;5073475;28;19955;-73
2023/01/29 02:18:36;;;;;;;;;;;;;;;-1.28;100.00;97458.16;5073603;28;19958;-73
2023/01/29 02:21:05;;;;;;;;;;;;;;;-1.27;100.00;97457.22;5074019;28;19954;-73
2023/01/29 02:23:31;;;;;;;;;;;;;;;-1.25;100.00;97457.94;5073406;28;19952;-73
2023/01/29 02:26:16;;;;;;;;;;;;;;;-1.23;100.00;97463.78;5073454;28;19955;-73
2023/01/29 02:28:48;;;;;;;;;;;;;;;-1.25;100.00;97470.78;5073305;28;19945;-73
2023/01/29 02:31:33;;;;;;;;;;;;;;;-1.27;100.00;97467.53;5073349;28;20007;-73
2023/01/29 02:34:17;;;;;;;;;;;;;;;-1.28;100.00;97476.16;5073379;28;20407;-73
2023/01/29 02:36:58;;;;;;;;;;;;;;;-1.28;100.00;97460.72;5073519;28;19969;-73
2023/01/29 02:39:40;;;;;;;;;;;;;;;-1.27;100.00;97464.94;5071943;28;19946;-73
2023/01/29 02:42:11;;;;;;;;;;;;;;;-1.23;100.00;97476.66;5073897;28;20442;-73
2023/01/29 02:44:45;;;;;;;;;;;;;;;-1.20;100.00;97471.25;5072922;28;20478;-73
2023/01/29 02:47:17;;;;;;;;;;;;;;;-1.21;100.00;97466.25;5073727;28;19952;-73
2023/01/29 02:49:43;;;;;;;;;;;;;;;-1.23;100.00;97464.59;5073191;28;19952;-73
2023/01/29 02:52:20;;;;;;;;;;;;;;;-1.23;100.00;97463.78;5073042;28;19962;-73
2023/01/29 02:54:50;;;;;;;;;;;;;;;-1.25;100.00;97460.50;5073776;28;20307;-73
2023/01/29 02:57:27;;;;;;;;;;;;;;;-1.27;100.00;97459.81;5073401;28;19947;-73
2023/01/29 02:59:55;;;;;;;;;;;;;;;-1.28;100.00;97465.88;5073320;28;20332;-73
2023/01/29 03:02:26;;;;;;;;;;;;;;;-1.29;100.00;97462.50;5072279;28;19946;-73
2023/01/29 03:04:59;;;;;;;;;;;;;;;-1.26;100.00;97462.25;5073408;28;19946;-73
2023/01/29 03:07:39;;;;;;;;;;;;;;;-1.23;100.00;97461.19;5073162;28;20432;-73
2023/01/29 03:10:08;;;;;;;;;;;;;;;-1.23;100.00;97440.63;5073663;28;19952;-73
2023/01/29 03:12:37;;;;;;;;;;;;;;;-1.25;99.78;97450.22;5073028;28;19982;-73
2023/01/29 03:15:11;;;;;;;;;;;;;;;-1.29;99.77;97446.22;5072914;28;19949;-73
2023/01/29 03:17:50;;;;;;;;;;;;;;;-1.31;99.99;97451.50;5073360;28;19957;-73
2023/01/29 03:20:17;;;;;;;;;;;;;;;-1.30;100.00;97455.72;5073154;28;19942;-73
2023/01/29 03:22:46;;;;;;;;;;;;;;;-1.27;100.00;97452.88;5074707;28;19951;-73
2023/01/29 03:33:34;;;;;;;;;;;;;;;-1.26;99.87;97459.69;5076924;28;19961;-73
2023/01/29 03:36:05;;;;;;;;;;;;;;;-1.25;99.85;97453.59;5076374;28;19951;-73
2023/01/29 03:38:31;;;;;;;;;;;;;;;-1.24;99.88;97462.13;5076102;28;19961;-73
2023/01/29 03:41:08;;;;;;;;;;;;;;;-1.24;100.00;97467.28;5076209;28;20049;-73
2023/01/29 03:43:38;;;;;;;;;;;;;;;-1.22;99.60;97462.81;5076346;28;19974;-73
2023/01/29 03:46:10;;;;;;;;;;;;;;;-1.22;99.87;97462.81;5063194;28;19951;-73
2023/01/29 03:48:50;;;;;;;;;;;;;;;-1.18;100.00;97459.06;5076211;28;19973;-73
2023/01/29 03:51:36;;;;;;;;;;;;;;;-1.14;99.75;97457.09;5076450;28;20378;-73
2023/01/29 03:54:08;;;;;;;;;;;;;;;-1.16;99.59;97456.38;5066423;28;19959;-73
2023/01/29 03:56:40;;;;;;;;;;;;;;;-1.17;99.82;97450.44;5076444;28;20438;-73
2023/01/29 03:59:14;;;;;;;;;;;;;;;-1.17;99.10;97453.00;5075962;28;19945;-73
2023/01/29 04:01:50;;;;;;;;;;;;;;;-1.18;98.84;97451.34;5075028;28;19943;-73
2023/01/29 04:04:20;;;;;;;;;;;;;;;-1.21;98.68;97451.59;5075104;28;19945;-73
2023/01/29 04:06:48;;;;;;;;;;;;;;;-1.25;98.54;97456.16;5075792;28;19942;-73
2023/01/29 04:09:21;;;;;;;;;;;;;;;-1.27;99.23;97457.22;5075011;28;19954;-73
2023/01/29 04:11:48;;;;;;;;;;;;;;;-1.27;99.17;97455.47;5075822;28;19966;-73
2023/01/29 04:14:15;;;;;;;;;;;;;;;-1.27;99.24;97459.81;5074583;28;20437;-73
2023/01/29 04:16:46;;;;;;;;;;;;;;;-1.29;99.64;97461.66;5075822;28;19951;-73
2023/01/29 04:19:12;;;;;;;;;;;;;;;-1.30;98.75;97455.72;5075609;28;19947;-73
2023/01/29 04:21:38;;;;;;;;;;;;;;;-1.31;98.96;97458.41;5076281;28;19951;-73
2023/01/29 04:24:05;;;;;;;;;;;;;;;-1.32;99.12;97454.22;5075766;28;19956;-73
2023/01/29 04:26:48;;;;;;;;;;;;;;;-1.31;99.57;97459.22;5075777;28;20023;-73
2023/01/29 04:29:22;;;;;;;;;;;;;;;-1.28;99.64;97458.16;5075752;28;19960;-74
2023/01/29 04:31:48;;;;;;;;;;;;;;;-1.25;99.00;97447.63;5075558;28;19949;-73
2023/01/29 04:34:26;;;;;;;;;;;;;;;-1.21;98.70;97443.06;5075030;28;19970;-73
2023/01/29 04:36:58;;;;;;;;;;;;;;;-1.18;98.16;97446.22;5075864;28;19951;-73
2023/01/29 04:39:29;;;;;;;;;;;;;;;-1.18;97.61;97448.78;5075478;28;19966;-73
2023/01/29 04:42:07;;;;;;;;;;;;;;;-1.20;97.73;97447.28;5074397;28;19966;-73
2023/01/29 04:44:38;;;;;;;;;;;;;;;-1.25;98.34;97448.44;5075390;28;19956;-73
2023/01/29 04:47:08;;;;;;;;;;;;;;;-1.26;98.44;97456.28;5075343;28;19953;-73
2023/01/29 04:49:42;;;;;;;;;;;;;;;-1.27;98.64;97449.50;5075395;28;20006;-73
2023/01/29 04:52:14;;;;;;;;;;;;;;;-1.28;98.59;97453.00;5075065;28;19950;-73
2023/01/29 04:54:46;;;;;;;;;;;;;;;-1.26;99.16;97451.13;5073673;28;19946;-73
2023/01/29 04:57:22;;;;;;;;;;;;;;;-1.24;98.63;97441.53;5075103;28;19954;-73
2023/01/29 04:59:52;;;;;;;;;;;;;;;-1.27;96.77;97434.88;5074891;28;19941;-73
2023/01/29 05:02:20;;;;;;;;;;;;;;;-1.32;97.74;97443.91;5075047;28;19946;-73
2023/01/29 05:04:47;;;;;;;;;;;;;;;-1.38;96.97;97437.47;5074854;28;19945;-73
2023/01/29 05:07:13;;;;;;;;;;;;;;;-1.40;96.07;97441.09;5074619;28;19946;-73
2023/01/29 05:09:42;;;;;;;;;;;;;;;-1.44;94.20;97430.22;5074833;28;19952;-73
2023/01/29 05:12:09;;;;;;;;;;;;;;;-1.46;95.42;97438.06;5075085;28;19958;-73
2023/01/29 05:14:36;;;;;;;;;;;;;;;-1.44;95.13;97443.09;5074504;28;19948;-73
2023/01/29 05:17:04;;;;;;;;;;;;;;;-1.49;93.38;97428.00;5074663;28;19947;-74
2023/01/29 05:19:30;;;;;;;;;;;;;;;-1.50;96.44;97454.66;5063856;28;19950;-73
2023/01/29 05:21:56;;;;;;;;;;;;;;;-1.47;97.39;97463.88;5074314;28;20397;-73
2023/01/29 05:24:24;;;;;;;;;;;;;;;-1.42;97.84;97464.38;5074741;28;19951;-73
2023/01/29 05:29:35;;;;;;;;;;;;;;;-1.33;97.21;97440.50;5074394;28;19946;-73
2023/01/29 05:32:01;;;;;;;;;;;;;;;-1.29;97.36;97444.47;5074320;28;20325;-73
2023/01/29 05:34:27;;;;;;;;;;;;;;;-1.25;97.24;97442.50;5074214;28;19973;-73
2023/01/29 05:36:53;;;;;;;;;;;;;;;-1.24;97.29;97447.53;5074351;28;20370;-73
2023/01/29 05:39:19;;;;;;;;;;;;;;;-1.23;97.68;97448.34;5074525;28;19949;-73
2023/01/29 05:41:45;;;;;;;;;;;;;;;-1.19;97.18;97451.50;5073906;28;19995;-73
2023/01/29 05:44:11;;;;;;;;;;;;;;;-1.20;97.33;97455.81;5074071;28;20412;-73
2023/01/29 05:46:37;;;;;;;;;;;;;;;-1.19;97.39;97454.88;5072283;28;19950;-73
2023/01/29 05:49:03;;;;;;;;;;;;;;;-1.18;97.69;97456.50;5074092;28;19945;-73
2023/01/29 05:51:29;;;;;;;;;;;;;;;-1.21;95.24;97448.22;5074376;28;19954;-73
2023/01/29 05:53:55;;;;;;;;;;;;;;;-1.27;95.85;97440.03;5073922;28;20480;-73
2023/01/29 05:56:21;;;;;;;;;;;;;;;-1.27;96.77;97444.38;5073897;28;19959;-73
2023/01/29 05:58:47;;;;;;;;;;;;;;;-1.26;97.01;97445.97;5074044;28;19945;-73
2023/01/29 06:01:20;;;;;;;;;;;;;;;-1.27;95.24;97428.91;5073965;28;19951;-73
2023/01/29 06:03:46;;;;;;;;;;;;;;;-1.38;93.92;97405.78;5073887;28;19944;-73
2023/01/29 06:06:12;;;;;;;;;;;;;;;-1.47;94.89;97412.44;5073118;28;19971;-73
2023/01/29 06:08:39;;;;;;;;;;;;;;;-1.48;93.45;97392.81;5073835;28;19950;-73
2023/01/29 06:11:09;;;;;;;;;;;;;;;-1.52;94.34;97397.38;5073836;28;19957;-73
2023/01/29 06:13:35;;;;;;;;;;;;;;;-1.50;95.52;97404.97;5073746;28;19964;-73
2023/01/29 06:16:03;;;;;;;;;;;;;;;-1.46;94.91;97414.91;5073712;28;20070;-73
2023/01/29 06:18:29;;;;;;;;;;;;;;;-1.45;93.88;97413.97;5073636;28;20331;-73
2023/01/29 06:20:58;;;;;;;;;;;;;;;-1.49;94.99;97417.72;5073530;28;19950;-73
2023/01/29 06:23:24;;;;;;;;;;;;;;;-1.51;95.57;97427.31;5072746;28;19968;-73
2023/01/29 06:25:50;;;;;;;;;;;;;;;-1.49;94.85;97419.44;5073815;28;20009;-73
2023/01/29 06:28:16;;;;;;;;;;;;;;;-1.45;95.79;97433.72;5073546;28;19948;-73
2023/01/29 06:30:42;;;;;;;;;;;;;;;-1.40;96.06;97433.38;5073346;28;19955;-73
2023/01/29 06:33:07;;;;;;;;;;;;;;;-1.38;94.96;97422.03;5073344;28;19978;-73
2023/01/29 06:35:33;;;;;;;;;;;;;;;-1.36;95.36;97421.94;5073513;28;19958;-73
2023/01/29 06:37:59;;;;;;;;;;;;;;;-1.33;95.33;97434.53;5073588;28;20019;-73
2023/01/29 06:40:25;;;;;;;;;;;;;;;-1.36;93.35;97419.34;5073666;28;19979;-73
2023/01/29 06:42:51;;;;;;;;;;;;;;;-1.36;93.23;97421.94;5105799;28;20020;-73
2023/01/29 06:45:17;;;;;;;;;;;;;;;-1.40;93.72;97431.63;5073388;28;20410;-73
2023/01/29 06:47:43;;;;;;;;;;;;;;;-1.44;94.49;97432.81;5073857;28;19948;-73
2023/01/29 06:50:09;;;;;;;;;;;;;;;-1.43;95.46;97444.72;5071925;28;19959;-73
2023/01/29 06:52:35;;;;;;;;;;;;;;;-1.40;95.60;97444.50;5073384;28;19950;-73
2023/01/29 06:55:01;;;;;;;;;;;;;;;-1.38;96.18;97450.34;5073316;28;19952;-73
2023/01/29 06:57:27;;;;;;;;;;;;;;;-1.34;96.67;97450.94;5074575;28;19952;-73
2023/01/29 06:59:53;;;;;;;;;;;;;;;-1.29;96.37;97452.19;5077067;28;19949;-73
2023/01/29 07:02:19;;;;;;;;;;;;;;;-1.25;96.68;97453.59;5077123;28;19987;-74
2023/01/29 07:04:45;;;;;;;;;;;;;;;-1.22;95.90;97452.53;5077127;28;20454;-73
2023/01/29 07:07:12;;;;;;;;;;;;;;;-1.25;95.09;97450.22;5077276;28;19956;-73
2023/01/29 07:09:41;;;;;;;;;;;;;;;-1.25;94.61;97451.00;5063793;28;19953;-73
2023/01/29 07:12:07;;;;;;;;;;;;;;;-1.25;95.08;97453.59;5076874;28;20429;-73
2023/01/29 07:14:33;;;;;;;;;;;;;;;-1.22;94.69;97447.38;5076026;28;19974;-73
2023/01/29 07:16:59;;;;;;;;;;;;;;;-1.19;94.69;97451.50;5077084;28;19945;-73
2023/01/29 07:19:25;;;;;;;;;;;;;;;-1.16;94.50;97452.06;5077014;28;19949;-73
2023/01/29 07:21:51;;;;;;;;;;;;;;;-1.14;92.89;97447.59;5076954;28;19956;-73
2023/01/29 07:24:17;;;;;;;;;;;;;;;-1.18;92.91;97435.09;5077035;28;20406;-73
2023/01/29 07:26:43;;;;;;;;;;;;;;;-1.23;92.74;97438.84;5076183;28;19950;-73
2023/01/29 07:29:09;;;;;;;;;;;;;;;-1.24;94.00;97447.53;5075653;28;19948;-73
2023/01/29 07:31:35;;;;;;;;;;;;;;;-1.21;94.21;97443.06;5076543;28;19947;-73
2023/01/29 07:34:01;;;;;;;;;;;;;;;-1.19;94.32;97446.34;5076768;28;20311;-73
2023/01/29 07:36:28;;;;;;;;;;;;;;;-1.16;94.60;97446.09;5076600;28;19946;-73
2023/01/29 07:38:54;;;;;;;;;;;;;;;-1.12;94.54;97453.44;5076528;28;19960;-73
2023/01/29 07:41:20;;;;;;;;;;;;;;;-1.09;94.73;97455.81;5076550;28;19957;-73
2023/01/29 07:43:46;;;;;;;;;;;;;;;-1.03;95.01;97460.47;5076406;28;19973;-73
2023/01/29 07:46:12;;;;;;;;;;;;;;;-1.00;94.33;97468.91;5076633;28;19957;-73
2023/01/29 07:48:38;;;;;;;;;;;;;;;-1.00;91.38;97445.72;5076303;28;19958;-73
2023/01/29 07:51:04;;;;;;;;;;;;;;;-1.07;90.57;97446.22;5076296;28;19953;-73
2023/01/29 07:53:30;;;;;;;;;;;;;;;-1.12;91.10;97453.44;5076315;28;19967;-73
2023/01/29 07:55:56;;;;;;;;;;;;;;;-1.14;91.30;97455.31;5074753;28;19951;-73
2023/01/29 07:58:22;;;;;;;;;;;;;;;-1.20;90.43;97455.81;5076209;28;19949;-73
2023/01/29 08:00:48;;;;;;;;;;;;;;;-1.28;90.22;97448.69;5075961;28;20001;-73
2023/01/29 08:03:15;;;;;;;;;;;;;;;-1.30;92.63;97470.31;5076339;28;19955;-73
2023/01/29 08:05:42;;;;;;;;;;;;;;;-1.33;90.14;97458.50;5075927;28;19953;-73
2023/01/29 08:08:08;;;;;;;;;;;;;;;-1.34;91.02;97466.38;5075485;28;20418;-73
2023/01/29 08:10:34;;;;;;;;;;;;;;;-1.36;90.21;97461.34;5075646;28;19958;-73
2023/01/29 08:13:01;;;;;;;;;;;;;;;-1.35;91.71;97486.13;5074937;28;19952;-73
2023/01/29 08:15:27;;;;;;;;;;;;;;;-1.30;92.99;97489.16;5075748;28;19953;-73
2023/01/29 08:17:53;;;;;;;;;;;;;;;-1.23;92.63;97482.59;5075973;28;19944;-73
2023/01/29 08:20:20;;;;;;;;;;;;;;;-1.14;92.72;97483.66;5075877;28;19953;-73
2023/01/29 08:22:45;;;;;;;;;;;;;;;-1.12;90.89;97462.94;5075827;28;20404;-73
2023/01/29 08:25:12;;;;;;;;;;;;;;;-1.20;90.05;97450.66;5075307;28;19959;-73
2023/01/29 08:27:38;;;;;;;;;;;;;;;-1.29;90.23;97462.50;5075922;28;20311;-73
2023/01/29 08:30:04;;;;;;;;;;;;;;;-1.30;91.27;97467.75;5076118;28;20157;-73
2023/01/29 08:32:30;;;;;;;;;;;;;;;-1.24;91.47;97475.00;5075357;28;19958;-73
2023/01/29 08:34:56;;;;;;;;;;;;;;;-1.24;91.54;97480.13;5075439;28;19969;-73
2023/01/29 08:37:22;;;;;;;;;;;;;;;-1.21;90.82;97476.53;5075624;28;19950;-74
2023/01/29 08:39:48;;;;;;;;;;;;;;;-1.22;90.42;97478.25;5075344;28;20037;-73
2023/01/29 08:42:14;;;;;;;;;;;;;;;-1.24;90.04;97467.28;5075467;28;19974;-74
2023/01/29 08:44:39;;;;;;;;;;;;;;;-1.26;90.63;97488.00;5075413;28;19956;-73
2023/01/29 08:47:05;;;;;;;;;;;;;;;-1.26;90.32;97485.44;5075338;28;19957;-73
2023/01/29 08:49:31;;;;;;;;;;;;;;;-1.24;91.13;97491.28;5075491;28;19949;-73
2023/01/29 08:51:57;;;;;;;;;;;;;;;-1.19;90.68;97492.69;5075080;28;20039;-73
2023/01/29 08:54:23;;;;;;;;;;;;;;;-1.16;91.99;97505.28;5075306;28;20016;-73
2023/01/29 08:56:49;;;;;;;;;;;;;;;-1.13;91.32;97493.03;5075104;28;20405;-73
2023/01/29 08:59:15;;;;;;;;;;;;;;;-1.07;91.28;97492.53;5075249;28;19962;-73
2023/01/29 09:01:41;;;;;;;;;;;;;;;-1.05;90.28;97485.53;5074995;28;19988;-73
2023/01/29 09:04:07;;;;;;;;;;;;;;;-1.06;89.61;97483.06;5074915;28;19986;-73
2023/01/29 09:06:33;;;;;;;;;;;;;;;-1.10;90.49;97495.34;5074674;28;19949;-73
2023/01/29 09:08:59;;;;;;;;;;;;;;;-1.09;90.92;97497.00;5074757;28;19950;-73
2023/01/29 09:11:25;;;;;;;;;;;;;;;-1.05;90.37;97490.66;5074945;28;20001;-73
2023/01/29 09:13:51;;;;;;;;;;;;;;;-1.04;91.06;97492.28;5074805;28;19975;-73
2023/01/29 09:16:17;;;;;;;;;;;;;;;-0.98;91.04;97497.91;5074684;28;19955;-73
2023/01/29 09:18:43;;;;;;;;;;;;;;;-0.91;91.57;97494.72;5074383;28;19956;-73
2023/01/29 09:21:09;;;;;;;;;;;;;;;-0.88;90.32;97484.22;5073850;28;20332;-73
2023/01/29 09:23:34;;;;;;;;;;;;;;;-0.79;92.05;97503.25;5074849;28;19952;-73
2023/01/29 09:26:00;;;;;;;;;;;;;;;-0.72;91.49;97506.97;5074502;28;19995;-73
2023/01/29 09:28:26;;;;;;;;;;;;;;;-0.66;88.40;97478.16;5074625;28;20023;-73
2023/01/29 09:30:52;;;;;;;;;;;;;;;-0.61;90.07;97506.13;5074203;28;19952;-73
2023/01/29 09:33:18;;;;;;;;;;;;;;;-0.56;90.04;97500.63;5074333;28;19957;-73
2023/01/29 09:35:45;;;;;;;;;;;;;;;-0.55;88.23;97472.16;5074121;28;20377;-73
2023/01/29 09:38:11;;;;;;;;;;;;;;;-0.56;89.04;97478.25;5074252;28;20319;-73
2023/01/29 09:40:56;;;;;;;;;;;;;;;-0.54;87.69;97468.66;5074129;28;19952;-73
2023/01/29 09:43:26;;;;;;;;;;;;;;;-0.51;88.79;97481.28;5060115;28;19971;-72
2023/01/29 09:46:04;;;;;;;;;;;;;;;-0.45;87.28;97470.47;5073955;28;19957;-73
2023/01/29 09:48:32;;;;;;;;;;;;;;;-0.45;84.14;97446.47;5074075;28;19950;-73
2023/01/29 09:51:00;;;;;;;;;;;;;;;-0.47;87.07;97472.34;5072656;28;19953;-73
2023/01/29 09:53:33;;;;;;;;;;;;;;;-0.55;86.16;97461.03;5073877;28;19972;-73
2023/01/29 09:56:10;;;;;;;;;;;;;;;-0.57;87.37;97476.59;5073796;28;19943;-73
2023/01/29 09:58:38;;;;;;;;;;;;;;;-0.51;88.03;97470.97;5074051;28;19956;-73
2023/01/29 10:01:04;;;;;;;;;;;;;;;-0.43;87.37;97472.94;5073941;28;19946;-73
2023/01/29 10:03:33;;;;;;;;;;;;;;;-0.40;88.42;97470.09;5074492;28;19991;-72
2023/01/29 10:05:59;;;;;;;;;;;;;;;-0.40;89.81;97475.25;5073643;28;20294;-72
2023/01/29 10:08:40;;;;;;;;;;;;;;;-0.38;88.92;97468.22;5073790;28;19959;-73
2023/01/29 10:11:25;;;;;;;;;;;;;;;-0.30;87.51;97447.78;5073806;28;19956;-73
2023/01/29 10:14:21;;;;;;;;;;;;;;;-0.24;85.90;97423.28;5073731;28;20387;-72
2023/01/29 10:16:53;;;;;;;;;;;;;;;-0.21;85.98;97410.97;5055385;28;20303;-73
2023/01/29 10:19:31;;;;;;;;;;;;;;;-0.16;85.81;97397.69;5073845;28;19947;-72
2023/01/29 10:22:04;;;;;;;;;;;;;;;-0.13;84.26;97392.28;5073550;28;20312;-72
2023/01/29 10:24:37;;;;;;;;;;;;;;;-0.09;85.69;97406.56;5073808;28;20298;-72
2023/01/29 10:27:11;;;;;;;;;;;;;;;0.05;86.84;97420.06;5073589;28;19948;-72
2023/01/29 10:29:39;;;;;;;;;;;;;;;0.17;85.33;97401.81;5073654;28;19948;-72
2023/01/29 10:32:05;;;;;;;;;;;;;;;0.25;84.40;97387.44;5073309;28;19957;-72
2023/01/29 10:34:38;;;;;;;;;;;;;;;0.32;84.20;97384.22;5073213;28;19962;-72
2023/01/29 10:37:14;;;;;;;;;;;;;;;0.41;83.06;97385.19;5106148;28;19950;-72
2023/01/29 10:39:40;;;;;;;;;;;;;;;0.42;83.13;97371.38;5065341;28;19956;-72
2023/01/29 10:42:14;;;;;;;;;;;;;;;0.34;81.04;97358.28;5073573;28;19984;-72
2023/01/29 10:44:46;;;;;;;;;;;;;;;0.27;81.75;97357.97;5056788;28;19946;-72
2023/01/29 10:47:31;;;;;;;;;;;;;;;0.31;83.19;97374.81;5073587;28;19958;-72
2023/01/29 10:50:17;;;;;;;;;;;;;;;0.39;84.02;97375.00;5061077;28;19947;-72
2023/01/29 10:52:49;;;;;;;;;;;;;;;0.53;83.64;97373.03;5027681;28;19948;-72
2023/01/29 10:55:17;;;;;;;;;;;;;;;0.66;84.53;97383.91;5072446;28;20332;-72
2023/01/29 10:57:51;;;;;;;;;;;;;;;0.63;80.84;97358.38;5073367;28;20010;-72
2023/01/29 11:00:20;;;;;;;;;;;;;;;0.59;80.15;97346.69;5073857;28;19950;-72
2023/01/29 11:02:47;;;;;;;;;;;;;;;0.58;82.99;97378.59;5072331;28;19949;-73
2023/01/29 11:05:18;;;;;;;;;;;;;;;0.56;81.64;97360.66;5073067;28;19960;-73
2023/01/29 11:07:45;;;;;;;;;;;;;;;0.43;77.54;97316.22;5073403;28;19952;-72
2023/01/29 11:10:13;;;;;;;;;;;;;;;0.23;80.50;97346.28;5073200;28;20299;-73
2023/01/29 11:12:40;;;;;;;;;;;;;;;0.24;83.58;97371.16;5073102;28;19953;-73
2023/01/29 11:15:18;;;;;;;;;;;;;;;0.30;84.28;97385.31;5073397;28;19967;-73
2023/01/29 11:18:19;;;;;;;;;;;;;;;0.32;82.18;97370.50;5073199;28;19949;-72
2023/01/29 11:20:45;;;;;;;;;;;;;;;0.35;82.99;97371.03;5011478;28;19950;-72
2023/01/29 11:23:30;;;;;;;;;;;;;;;0.45;83.09;97375.44;5060174;28;20343;-73
2023/01/29 11:25:57;;;;;;;;;;;;;;;0.62;83.42;97386.91;5059899;28;20336;-73
2023/01/29 11:28:40;;;;;;;;;;;;;;;0.67;82.39;97372.63;5071629;28;20441;-73
2023/01/29 11:31:35;;;;;;;;;;;;;;;0.71;84.05;97391.25;5064133;28;19953;-72
2023/01/29 11:34:05;;;;;;;;;;;;;;;0.80;82.71;97373.22;5059597;28;20453;-73
2023/01/29 11:36:36;;;;;;;;;;;;;;;0.87;81.46;97360.56;5072697;28;20325;-73
2023/01/29 11:39:08;;;;;;;;;;;;;;;0.88;79.69;97338.94;5072252;28;19949;-73
2023/01/29 11:41:53;;;;;;;;;;;;;;;0.90;82.63;97362.88;5071630;28;19951;-73
2023/01/29 11:44:20;;;;;;;;;;;;;;;0.92;81.49;97347.25;5075088;28;19956;-73
2023/01/29 11:46:46;;;;;;;;;;;;;;;0.93;82.00;97351.47;5076421;28;19954;-73
2023/01/29 11:49:21;;;;;;;;;;;;;;;0.80;82.07;97336.25;5076402;28;20327;-73
2023/01/29 11:51:52;;;;;;;;;;;;;;;0.77;82.22;97339.91;5076418;28;20319;-74
2023/01/29 11:54:19;;;;;;;;;;;;;;;0.81;80.16;97318.03;5076707;28;20339;-73
2023/01/29 11:56:45;;;;;;;;;;;;;;;0.71;81.31;97334.47;5076049;28;19958;-74
2023/01/29 11:59:30;;;;;;;;;;;;;;;0.69;83.09;97350.06;5076432;28;20321;-73
2023/01/29 12:02:04;;;;;;;;;;;;;;;0.68;81.83;97327.00;5076205;28;20315;-73
2023/01/29 12:04:29;;;;;;;;;;;;;;;0.72;83.24;97336.91;5076569;28;19953;-73
2023/01/29 12:06:55;;;;;;;;;;;;;;;0.77;82.62;97323.59;5076096;28;20457;-73
2023/01/29 12:09:23;;;;;;;;;;;;;;;0.86;82.73;97340.03;5076336;28;20007;-74
2023/01/29 12:11:50;;;;;;;;;;;;;;;0.94;82.78;97327.28;5075825;28;19952;-74
2023/01/29 12:14:27;;;;;;;;;;;;;;;1.02;82.71;97324.84;5075856;28;19977;-73
2023/01/29 12:16:57;;;;;;;;;;;;;;;1.05;82.96;97322.00;5064945;28;19943;-73
2023/01/29 12:19:43;;;;;;;;;;;;;;;1.03;79.47;97287.72;5075983;28;19959;-74
2023/01/29 12:22:38;;;;;;;;;;;;;;;0.99;81.59;97302.69;5075673;28;19964;-73
2023/01/29 12:25:13;;;;;;;;;;;;;;;1.06;81.89;97299.56;5062310;28;19958;-73
2023/01/29 12:27:54;;;;;;;;;;;;;;;1.07;80.52;97273.59;5075636;28;19942;-73
2023/01/29 12:30:27;;;;;;;;;;;;;;;1.08;81.93;97293.28;5075503;28;19951;-73
2023/01/29 12:33:02;;;;;;;;;;;;;;;1.09;81.42;97268.25;5075419;28;19944;-74
2023/01/29 12:35:28;;;;;;;;;;;;;;;0.91;78.14;97229.44;5075467;28;20329;-73
2023/01/29 12:38:09;;;;;;;;;;;;;;;0.79;81.29;97263.13;5075595;28;19954;-73
2023/01/29 12:40:41;;;;;;;;;;;;;;;0.80;79.83;97244.09;5075670;28;19955;-73
2023/01/29 12:43:14;;;;;;;;;;;;;;;0.85;80.73;97242.88;5064312;28;19982;-73
2023/01/29 12:45:40;;;;;;;;;;;;;;;0.89;79.04;97226.16;5075336;28;20102;-74
2023/01/29 12:48:09;;;;;;;;;;;;;;;0.93;81.71;97228.34;5075296;28;20347;-73
2023/01/29 12:50:36;;;;;;;;;;;;;;;1.00;82.46;97226.81;5075093;28;19955;-73
2023/01/29 12:53:05;;;;;;;;;;;;;;;0.99;80.03;97198.56;5075430;28;20408;-73
2023/01/29 12:55:31;;;;;;;;;;;;;;;0.84;77.42;97164.63;5074955;28;19966;-73
2023/01/29 12:57:58;;;;;;;;;;;;;;;0.81;77.79;97165.69;5074954;28;20028;-73
2023/01/29 13:00:27;;;;;;;;;;;;;;;0.80;80.54;97187.31;5075286;28;19952;-73
2023/01/29 13:03:00;;;;;;;;;;;;;;;0.75;78.85;97168.81;5074747;28;20315;-73
2023/01/29 13:05:26;;;;;;;;;;;;;;;0.67;77.88;97152.38;5075079;28;19956;-73
2023/01/29 13:07:56;;;;;;;;;;;;;;;0.69;79.93;97182.28;5073319;28;20426;-73
2023/01/29 13:10:28;;;;;;;;;;;;;;;0.67;79.56;97163.53;5075040;28;19961;-73
2023/01/29 13:12:58;;;;;;;;;;;;;;;0.70;80.01;97167.63;5074995;28;19953;-73
2023/01/29 13:15:50;;;;;;;;;;;;;;;0.74;76.80;97138.00;5074566;28;19968;-73
2023/01/29 13:18:31;;;;;;;;;;;;;;;0.79;79.50;97174.53;5059172;28;19951;-73
2023/01/29 13:20:58;;;;;;;;;;;;;;;0.96;81.10;97196.25;5074467;28;19943;-73
2023/01/29 13:23:36;;;;;;;;;;;;;;;1.10;80.12;97184.66;5074386;28;19953;-73
2023/01/29 13:26:02;;;;;;;;;;;;;;;1.17;78.60;97159.88;5074705;28;19955;-73
2023/01/29 13:28:28;;;;;;;;;;;;;;;1.15;80.04;97161.78;5074285;28;19948;-72